createdAt,value
2018-07-28T00:00:10.767Z,99.90
2018-07-28T00:05:14.633Z,99.90
2018-07-28T00:10:17.818Z,99.90
2018-07-28T00:15:21.900Z,99.90
2018-07-28T00:20:24.956Z,99.90
2018-07-28T00:25:32.337Z,99.90
2018-07-28T00:30:35.441Z,99.90
2018-07-28T00:35:38.526Z,99.90
2018-07-28T00:40:41.576Z,99.90
2018-07-28T00:45:44.604Z,99.90
2018-07-28T00:50:47.760Z,99.90
2018-07-28T00:55:50.847Z,99.90
2018-07-28T01:00:53.940Z,99.90
2018-07-28T01:05:57.056Z,99.90
2018-07-28T01:11:00.108Z,99.90
2018-07-28T01:16:03.209Z,99.90
2018-07-28T01:21:06.738Z,99.90
2018-07-28T01:26:09.761Z,99.90
2018-07-28T01:36:15.702Z,99.90
2018-07-28T01:41:18.880Z,99.90
2018-07-28T01:46:21.997Z,99.90
2018-07-28T01:51:25.065Z,99.90
2018-07-28T01:56:28.122Z,99.90
2018-07-28T02:01:31.247Z,99.90
2018-07-28T02:11:37.937Z,99.90
2018-07-28T02:16:41.007Z,99.90
2018-07-28T02:21:44.138Z,99.90
2018-07-28T02:26:47.257Z,99.90
2018-07-28T02:31:50.310Z,99.90
2018-07-28T02:36:53.376Z,99.90
2018-07-28T02:41:56.431Z,99.90
2018-07-28T02:46:59.532Z,99.90
2018-07-28T02:52:02.582Z,99.90
2018-07-28T02:57:05.654Z,99.90
2018-07-28T03:02:09.793Z,99.90
2018-07-28T03:07:14.077Z,99.90
2018-07-28T03:12:17.189Z,99.90
2018-07-28T03:17:20.301Z,99.90
2018-07-28T03:22:23.393Z,99.90
2018-07-28T03:27:26.526Z,99.90
2018-07-28T03:32:29.579Z,99.90
2018-07-28T03:37:32.676Z,99.90
2018-07-28T03:42:35.902Z,99.90
2018-07-28T03:47:40.076Z,99.90
2018-07-28T03:52:43.143Z,99.90
2018-07-28T03:57:46.320Z,99.90
2018-07-28T04:07:52.636Z,99.90
2018-07-28T04:17:58.686Z,99.90
2018-07-28T04:23:01.819Z,99.90
2018-07-28T04:28:04.906Z,99.90
2018-07-28T04:33:08.029Z,99.90
2018-07-28T04:38:11.160Z,99.90
2018-07-28T04:43:14.225Z,99.90
2018-07-28T04:48:17.415Z,99.90
2018-07-28T04:53:20.617Z,99.90
2018-07-28T04:58:23.683Z,99.90
2018-07-28T05:03:26.772Z,99.90
2018-07-28T05:08:29.845Z,99.90
2018-07-28T05:13:32.945Z,99.90
2018-07-28T05:18:36.033Z,99.90
2018-07-28T05:23:39.129Z,99.90
2018-07-28T05:28:42.132Z,99.90
2018-07-28T05:38:48.357Z,99.90
2018-07-28T05:43:51.427Z,99.90
2018-07-28T05:48:54.483Z,99.90
2018-07-28T05:53:57.545Z,99.90
2018-07-28T05:59:00.566Z,99.90
2018-07-28T06:04:03.656Z,99.90
2018-07-28T06:09:07.528Z,99.90
2018-07-28T06:14:10.645Z,99.90
2018-07-28T06:19:13.702Z,99.90
2018-07-28T06:24:16.780Z,99.90
2018-07-28T06:29:19.867Z,99.90
2018-07-28T06:34:23.149Z,99.90
2018-07-28T06:39:26.253Z,99.90
2018-07-28T06:44:29.303Z,99.90
2018-07-28T06:49:32.410Z,99.90
2018-07-28T06:54:35.504Z,99.90
2018-07-28T06:59:38.542Z,99.90
2018-07-28T07:04:41.977Z,98.80
2018-07-28T07:09:45.007Z,98.10
2018-07-28T07:14:48.043Z,97.00
2018-07-28T07:19:51.112Z,97.40
2018-07-28T07:24:54.199Z,95.90
2018-07-28T07:29:57.273Z,94.90
2018-07-28T07:35:00.311Z,93.50
2018-07-28T07:40:03.507Z,94.70
2018-07-28T07:45:07.107Z,94.40
2018-07-28T07:50:10.145Z,93.40
2018-07-28T07:55:13.233Z,92.80
2018-07-28T08:00:16.264Z,92.60
2018-07-28T08:05:19.429Z,91.80
2018-07-28T08:10:22.546Z,92.30
2018-07-28T08:15:25.619Z,90.70
2018-07-28T08:20:28.711Z,90.20
2018-07-28T08:25:31.760Z,92.10
2018-07-28T08:30:34.796Z,92.40
2018-07-28T08:35:37.946Z,92.10
2018-07-28T08:40:41.119Z,91.30
2018-07-28T08:45:44.281Z,92.90
2018-07-28T08:50:47.401Z,93.00
2018-07-28T08:55:50.429Z,92.70
2018-07-28T09:00:53.487Z,93.60
2018-07-28T09:05:57.008Z,93.60
2018-07-28T09:11:00.137Z,94.00
2018-07-28T09:16:03.215Z,93.30
2018-07-28T09:21:06.777Z,94.20
2018-07-28T09:26:09.935Z,92.30
2018-07-28T09:31:13.062Z,92.90
2018-07-28T09:46:22.248Z,93.00
2018-07-28T09:51:25.305Z,93.10
2018-07-28T09:56:28.421Z,92.50
2018-07-28T10:01:31.528Z,92.90
2018-07-28T10:06:34.705Z,93.90
2018-07-28T10:11:37.806Z,93.10
2018-07-28T10:16:40.924Z,93.40
2018-07-28T10:21:44.172Z,93.10
2018-07-28T10:26:47.552Z,93.30
2018-07-28T10:31:50.985Z,92.50
2018-07-28T10:36:54.388Z,92.40
2018-07-28T10:41:57.493Z,92.70
2018-07-28T10:47:00.676Z,91.90
2018-07-28T10:57:08.908Z,91.40
2018-07-28T11:02:12.025Z,91.20
2018-07-28T11:07:15.471Z,92.00
2018-07-28T11:12:18.532Z,90.90
2018-07-28T11:17:21.653Z,93.10
2018-07-28T11:22:24.709Z,92.30
2018-07-28T11:27:27.793Z,91.10
2018-07-28T11:32:42.383Z,91.30
2018-07-28T11:38:00.948Z,90.20
2018-07-28T11:43:15.468Z,90.10
2018-07-28T11:48:18.524Z,89.20
2018-07-28T11:53:21.554Z,90.20
2018-07-28T11:58:24.790Z,86.50
2018-07-28T12:03:28.766Z,88.10
2018-07-28T12:08:31.874Z,85.90
2018-07-28T12:13:35.028Z,85.90
2018-07-28T12:18:38.221Z,89.70
2018-07-28T12:23:41.938Z,84.00
2018-07-28T12:28:45.013Z,84.40
2018-07-28T12:33:49.293Z,86.30
2018-07-28T12:38:52.392Z,86.40
2018-07-28T12:43:55.610Z,87.90
2018-07-28T12:48:58.769Z,85.10
2018-07-28T12:54:02.030Z,84.20
2018-07-28T12:59:05.312Z,84.40
2018-07-28T13:04:08.619Z,86.10
2018-07-28T13:09:12.603Z,83.30
2018-07-28T13:14:15.726Z,86.50
2018-07-28T13:19:18.883Z,87.20
2018-07-28T13:24:21.986Z,85.80
2018-07-28T13:29:25.051Z,83.50
2018-07-28T13:34:28.168Z,83.20
2018-07-28T13:39:31.306Z,82.30
2018-07-28T13:44:34.397Z,82.80
2018-07-28T13:49:37.441Z,83.00
2018-07-28T13:54:40.550Z,82.40
2018-07-28T13:59:43.616Z,82.50
2018-07-28T14:04:46.752Z,85.30
2018-07-28T14:09:49.920Z,84.80
2018-07-28T14:14:53.184Z,84.00
2018-07-28T14:19:56.319Z,82.70
2018-07-28T14:24:59.551Z,85.80
2018-07-28T14:30:02.578Z,83.90
2018-07-28T14:35:05.849Z,81.70
2018-07-28T14:40:08.895Z,81.30
2018-07-28T14:45:12.445Z,82.50
2018-07-28T14:50:15.548Z,83.50
2018-07-28T14:55:18.630Z,81.70
2018-07-28T15:00:21.743Z,81.50
2018-07-28T15:05:25.007Z,80.50
2018-07-28T15:10:28.207Z,81.10
2018-07-28T15:15:31.336Z,80.30
2018-07-28T15:20:34.444Z,80.20
2018-07-28T15:25:37.503Z,82.30
2018-07-28T15:30:40.561Z,79.00
2018-07-28T15:35:43.679Z,78.90
2018-07-28T15:40:47.075Z,78.20
2018-07-28T15:45:50.208Z,78.60
2018-07-28T15:50:54.371Z,73.90
2018-07-28T15:55:57.419Z,75.10
2018-07-28T16:01:00.542Z,75.50
2018-07-28T16:06:03.767Z,73.40
2018-07-28T16:11:06.751Z,73.90
2018-07-28T16:16:09.929Z,77.80
2018-07-28T16:21:13.011Z,75.70
2018-07-28T16:26:16.076Z,74.80
2018-07-28T16:31:19.149Z,75.80
2018-07-28T16:36:22.261Z,76.30
2018-07-28T16:41:25.402Z,76.80
2018-07-28T16:46:28.531Z,77.20
2018-07-28T16:51:31.612Z,79.50
2018-07-28T16:56:34.720Z,77.50
2018-07-28T17:01:37.746Z,79.00
2018-07-28T17:06:40.853Z,79.50
2018-07-28T17:11:44.065Z,80.90
2018-07-28T17:16:47.200Z,80.10
2018-07-28T17:21:50.291Z,82.20
2018-07-28T17:26:53.393Z,82.20
2018-07-28T17:31:57.516Z,80.80
2018-07-28T17:37:00.764Z,84.00
2018-07-28T17:42:03.960Z,83.60
2018-07-28T17:47:07.249Z,82.70
2018-07-28T17:52:10.767Z,85.70
2018-07-28T17:57:13.860Z,89.70
2018-07-28T18:02:16.876Z,91.10
2018-07-28T18:07:19.944Z,91.80
2018-07-28T18:12:23.074Z,92.90
2018-07-28T18:17:26.245Z,94.80
2018-07-28T18:22:29.320Z,96.00
2018-07-28T18:27:32.421Z,95.20
2018-07-28T18:32:35.672Z,95.70
2018-07-28T18:37:39.002Z,95.40
2018-07-28T18:42:42.087Z,96.00
2018-07-28T18:47:45.204Z,96.00
2018-07-28T18:52:48.315Z,99.90
2018-07-28T18:57:51.417Z,99.90
2018-07-28T19:02:54.577Z,99.90
2018-07-28T19:07:57.652Z,99.90
2018-07-28T19:13:06.153Z,99.90
2018-07-28T19:18:14.896Z,99.90
2018-07-28T19:23:23.529Z,99.90
2018-07-28T19:28:32.161Z,99.90
2018-07-28T19:33:35.246Z,99.90
2018-07-28T19:38:38.370Z,99.90
2018-07-28T19:43:41.481Z,99.90
2018-07-28T19:48:44.573Z,99.90
2018-07-28T19:53:47.812Z,99.90
2018-07-28T19:58:50.886Z,99.90
2018-07-28T20:03:54.084Z,99.90
2018-07-28T20:08:57.245Z,99.90
2018-07-28T20:14:00.578Z,99.90
2018-07-28T20:19:03.810Z,99.90
2018-07-28T20:24:07.103Z,99.90
2018-07-28T20:29:10.540Z,99.90
2018-07-28T20:34:13.641Z,99.90
2018-07-28T20:39:16.735Z,99.90
2018-07-28T20:44:19.764Z,99.90
2018-07-28T20:49:22.883Z,99.90
2018-07-28T20:59:28.991Z,99.90
2018-07-28T21:04:32.014Z,99.90
2018-07-28T21:09:35.083Z,99.90
2018-07-28T21:14:38.143Z,99.90
2018-07-28T21:19:41.262Z,99.90
2018-07-28T21:24:44.344Z,99.90
2018-07-28T21:29:47.485Z,99.90
2018-07-28T21:35:21.759Z,99.90
2018-07-28T21:40:24.898Z,99.90
2018-07-28T21:45:28.075Z,99.90
2018-07-28T21:50:31.218Z,99.90
2018-07-28T21:55:34.315Z,99.90
2018-07-28T22:00:42.914Z,99.90
2018-07-28T22:05:46.047Z,99.90
2018-07-28T22:10:49.089Z,99.90
2018-07-28T22:15:52.177Z,99.90
2018-07-28T22:20:55.342Z,99.90
2018-07-28T22:25:58.836Z,99.90
2018-07-28T22:31:02.020Z,99.90
2018-07-28T22:36:05.073Z,99.90
2018-07-28T22:41:08.203Z,99.90
2018-07-28T22:46:11.381Z,99.90
2018-07-28T22:51:14.409Z,99.90
2018-07-28T22:56:17.505Z,99.90
2018-07-28T23:01:20.719Z,99.90
2018-07-28T23:06:23.710Z,99.90
2018-07-28T23:11:26.980Z,99.90
2018-07-28T23:21:32.976Z,99.90
2018-07-28T23:26:36.074Z,99.90
2018-07-28T23:31:39.129Z,99.90
2018-07-28T23:36:42.195Z,99.90
2018-07-28T23:41:45.306Z,99.90
2018-07-28T23:46:48.527Z,99.90
2018-07-28T23:51:51.588Z,99.90
